Corumba de Goias, Brazil
Current Conditions -  °F | °C
As of 2:00 AM on Sunday 26 Oct 2014 (Local Time) from SBAN Reporting Station
Broken Clouds Broken Clouds  
Wind Chill: 66°   Ceiling: 10000
Heat Index: 66°   Visibility: 6mi
Dew Point: 63°   Wind: 5mph
Humidity: 88%   Direction: 150°SSE
Pressure: 30.06"   Gusts: NA
Location:  15.92°S, 48.81°W
Report Text: SBAN 260400Z 15004KT 9999 FEW020 BKN100 19/17 Q1018
Loading
Personal Weather Stations






























Interactive Weather Map
Tropical Storm Tracking
New forecast layout! Learn more

10-Day Weather Forecast

Advertisements
Track Severe Weather on mobile